Time;durP1;ratioP1;P1;durP2;ratioP2;P2;SDS_P1;SDS_P2;PMS_P1;PMS_P2;Temp;Humidity;BMP_temperature;BMP_pressure;BME280_temperature;BME280_humidity;BME280_pressure;Samples;Min_cycle;Max_cycle;Signal;HPM_P1;HPM_P2
2022/01/26 00:00:43;;;;;;;91.20;32.22;;;;;;;;;;5049034;28;20033;-64
2022/01/26 00:06:00;;;;;;;92.65;32.40;;;;;;;;;;5042117;28;21233;-65
2022/01/26 00:08:26;;;;;;;87.13;30.73;;;;;;;;;;5048726;28;20037;-64
2022/01/26 00:10:52;;;;;;;86.97;32.00;;;;;;;;;;5048876;28;20033;-64
2022/01/26 00:13:18;;;;;;;83.38;31.65;;;;;;;;;;5045759;28;20060;-64
2022/01/26 00:15:44;;;;;;;84.15;31.42;;;;;;;;;;5049541;28;20043;-64
2022/01/26 00:18:10;;;;;;;87.13;31.52;;;;;;;;;;5046622;28;20032;-64
2022/01/26 00:20:43;;;;;;;90.30;30.88;;;;;;;;;;5053522;28;20570;-64
2022/01/26 00:23:34;;;;;;;86.95;31.67;;;;;;;;;;5053781;28;20033;-64
2022/01/26 00:26:09;;;;;;;84.57;30.98;;;;;;;;;;5043698;28;20509;-64
2022/01/26 00:28:58;;;;;;;94.32;31.02;;;;;;;;;;5036145;28;20053;-64
2022/01/26 00:39:35;;;;;;;88.50;31.13;;;;;;;;;;5051345;28;20048;-64
2022/01/26 00:42:01;;;;;;;89.28;32.05;;;;;;;;;;5046986;28;20026;-64
2022/01/26 00:44:36;;;;;;;91.68;31.35;;;;;;;;;;5046914;28;20044;-64
2022/01/26 00:47:02;;;;;;;91.95;32.90;;;;;;;;;;5044743;28;20099;-64
2022/01/26 00:49:29;;;;;;;87.60;31.05;;;;;;;;;;5050139;28;20037;-64
2022/01/26 00:51:55;;;;;;;91.05;30.50;;;;;;;;;;5048611;28;20045;-64
2022/01/26 00:54:22;;;;;;;80.03;29.08;;;;;;;;;;5050825;28;20044;-64
2022/01/26 00:56:48;;;;;;;81.95;28.95;;;;;;;;;;5022120;28;20038;-64
2022/01/26 00:59:14;;;;;;;90.28;30.27;;;;;;;;;;5047041;28;20119;-64
2022/01/26 01:01:40;;;;;;;82.05;30.25;;;;;;;;;;5027295;28;20144;-65
2022/01/26 01:04:07;;;;;;;83.75;29.60;;;;;;;;;;5047450;28;20051;-64
2022/01/26 01:06:43;;;;;;;85.13;28.65;;;;;;;;;;5041430;28;20096;-64
2022/01/26 01:09:09;;;;;;;74.40;27.27;;;;;;;;;;5029028;28;20044;-64
2022/01/26 01:11:35;;;;;;;90.10;29.88;;;;;;;;;;5047883;28;20415;-64
2022/01/26 01:14:01;;;;;;;84.28;28.98;;;;;;;;;;5044880;28;20036;-64
2022/01/26 01:16:28;;;;;;;82.13;28.55;;;;;;;;;;5049605;28;20049;-64
2022/01/26 01:27:02;;;;;;;86.53;30.33;;;;;;;;;;5038310;28;20261;-64
2022/01/26 01:29:36;;;;;;;88.40;30.10;;;;;;;;;;5026415;28;20346;-64
2022/01/26 01:32:10;;;;;;;80.82;28.08;;;;;;;;;;5028403;28;20053;-64
2022/01/26 01:34:38;;;;;;;82.80;28.30;;;;;;;;;;5031820;28;20057;-64
2022/01/26 01:37:07;;;;;;;86.82;30.50;;;;;;;;;;5040086;22;20041;-66
2022/01/26 01:39:33;;;;;;;81.60;28.67;;;;;;;;;;5007853;28;20042;-66
2022/01/26 01:42:00;;;;;;;85.50;29.38;;;;;;;;;;4997842;28;20076;-66
2022/01/26 01:44:26;;;;;;;80.57;29.20;;;;;;;;;;5002999;28;20512;-66
2022/01/26 01:46:53;;;;;;;89.70;30.27;;;;;;;;;;4990095;28;20605;-66
2022/01/26 01:49:19;;;;;;;93.35;30.88;;;;;;;;;;4978351;28;20121;-66
2022/01/26 01:51:53;;;;;;;98.20;32.45;;;;;;;;;;4977056;28;20074;-66
2022/01/26 01:54:19;;;;;;;87.93;30.70;;;;;;;;;;4982756;28;20551;-66
2022/01/26 01:56:53;;;;;;;93.32;33.53;;;;;;;;;;4983435;28;20427;-66
2022/01/26 01:59:19;;;;;;;90.20;31.25;;;;;;;;;;4982372;28;20420;-66
2022/01/26 02:01:45;;;;;;;92.03;31.88;;;;;;;;;;4978890;28;20045;-66
2022/01/26 02:04:11;;;;;;;94.40;33.00;;;;;;;;;;4978938;28;20043;-66
2022/01/26 02:06:37;;;;;;;87.00;30.65;;;;;;;;;;4988715;28;20047;-66
2022/01/26 02:09:04;;;;;;;90.50;32.13;;;;;;;;;;4983595;28;20042;-66
2022/01/26 02:11:30;;;;;;;93.88;32.17;;;;;;;;;;4971569;28;20046;-66
2022/01/26 02:14:11;;;;;;;88.35;30.95;;;;;;;;;;4974380;28;20072;-66
2022/01/26 02:17:00;;;;;;;90.55;31.08;;;;;;;;;;4987350;28;20496;-66
2022/01/26 02:52:56;;;;;;;91.43;30.52;;;;;;;;;;4977955;28;20626;-66
2022/01/26 02:55:36;;;;;;;90.88;32.15;;;;;;;;;;4984760;28;20050;-66
2022/01/26 02:58:44;;;;;;;90.67;30.53;;;;;;;;;;4983114;28;20404;-66
2022/01/26 03:04:01;;;;;;;89.78;29.38;;;;;;;;;;4986712;28;20126;-66
2022/01/26 03:06:36;;;;;;;93.53;32.83;;;;;;;;;;4987648;28;20049;-67
2022/01/26 03:09:09;;;;;;;91.68;30.48;;;;;;;;;;4976559;28;20047;-66
2022/01/26 03:11:37;;;;;;;90.30;31.10;;;;;;;;;;4976994;28;20492;-66
2022/01/26 03:14:14;;;;;;;89.70;31.20;;;;;;;;;;4978565;28;20466;-66
2022/01/26 03:16:46;;;;;;;94.60;32.10;;;;;;;;;;4990891;28;20054;-66
2022/01/26 03:19:30;;;;;;;94.90;29.95;;;;;;;;;;4976115;28;20117;-66
2022/01/26 03:22:15;;;;;;;96.45;31.60;;;;;;;;;;4980304;28;20551;-66
2022/01/26 03:30:07;;;;;;;90.38;31.48;;;;;;;;;;4989139;28;20057;-66
2022/01/26 03:35:17;;;;;;;94.70;29.85;;;;;;;;;;4989373;28;20064;-66
2022/01/26 03:37:52;;;;;;;88.30;29.75;;;;;;;;;;4980723;28;20043;-66
2022/01/26 03:40:19;;;;;;;87.60;29.67;;;;;;;;;;4989333;28;20047;-66
2022/01/26 03:42:44;;;;;;;88.50;29.55;;;;;;;;;;4987214;28;20404;-66
2022/01/26 03:45:10;;;;;;;90.85;29.63;;;;;;;;;;4983732;28;20045;-66
2022/01/26 03:47:36;;;;;;;89.55;28.98;;;;;;;;;;4985754;28;20147;-66
2022/01/26 03:50:03;;;;;;;88.28;29.88;;;;;;;;;;4984204;28;20065;-66
2022/01/26 03:52:29;;;;;;;94.30;31.05;;;;;;;;;;4981778;28;20485;-66
2022/01/26 03:54:55;;;;;;;95.22;30.30;;;;;;;;;;4977639;28;20041;-66
2022/01/26 03:57:21;;;;;;;92.55;30.58;;;;;;;;;;4985839;28;20104;-66
2022/01/26 03:59:47;;;;;;;93.03;29.85;;;;;;;;;;4982099;28;20043;-66
2022/01/26 04:02:13;;;;;;;91.95;29.67;;;;;;;;;;4983696;28;20118;-66
2022/01/26 04:04:46;;;;;;;92.53;30.13;;;;;;;;;;4983651;28;20076;-66
2022/01/26 04:07:13;;;;;;;92.57;31.17;;;;;;;;;;4990795;28;20049;-66
2022/01/26 04:09:39;;;;;;;90.57;30.25;;;;;;;;;;5003262;28;20042;-66
2022/01/26 04:12:05;;;;;;;85.53;28.58;;;;;;;;;;4991379;28;20129;-66
2022/01/26 04:14:33;;;;;;;86.18;29.40;;;;;;;;;;4989975;28;20073;-66
2022/01/26 04:16:59;;;;;;;87.03;28.13;;;;;;;;;;4992564;28;20042;-66
2022/01/26 04:19:28;;;;;;;98.43;30.35;;;;;;;;;;4983909;28;20422;-66
2022/01/26 04:24:33;;;;;;;83.97;27.98;;;;;;;;;;4976325;28;20457;-66
2022/01/26 04:27:08;;;;;;;84.35;29.05;;;;;;;;;;4987786;28;20054;-66
2022/01/26 04:29:35;;;;;;;80.50;24.33;;;;;;;;;;4992098;28;20050;-65
2022/01/26 04:32:02;;;;;;;84.30;27.70;;;;;;;;;;4991742;28;20042;-66
2022/01/26 04:34:28;;;;;;;81.38;28.00;;;;;;;;;;4988507;28;20687;-66
2022/01/26 04:39:36;;;;;;;83.93;27.67;;;;;;;;;;4991560;28;20077;-66
2022/01/26 04:42:08;;;;;;;86.25;28.23;;;;;;;;;;4990480;28;20070;-66
2022/01/26 04:44:41;;;;;;;83.60;27.13;;;;;;;;;;4975058;28;20077;-66
2022/01/26 04:47:07;;;;;;;86.65;27.17;;;;;;;;;;4989294;28;20160;-66
2022/01/26 04:49:34;;;;;;;85.40;28.20;;;;;;;;;;4991340;28;20278;-66
2022/01/26 04:52:00;;;;;;;81.47;27.30;;;;;;;;;;4987079;28;20118;-66
2022/01/26 04:54:26;;;;;;;88.97;28.25;;;;;;;;;;4981081;28;20046;-66
2022/01/26 04:56:52;;;;;;;77.55;25.35;;;;;;;;;;4990665;28;20060;-66
2022/01/26 04:59:18;;;;;;;82.28;25.52;;;;;;;;;;4982275;28;20049;-66
2022/01/26 05:01:44;;;;;;;75.25;23.77;;;;;;;;;;4983449;28;20046;-66
2022/01/26 05:04:10;;;;;;;79.88;27.17;;;;;;;;;;4983873;28;20043;-66
2022/01/26 05:06:36;;;;;;;84.10;26.63;;;;;;;;;;4986102;28;20047;-66
2022/01/26 05:09:03;;;;;;;84.80;26.33;;;;;;;;;;4981075;28;20129;-66
2022/01/26 05:11:38;;;;;;;79.75;24.95;;;;;;;;;;4985115;28;20492;-66
2022/01/26 05:14:04;;;;;;;82.28;26.63;;;;;;;;;;4978410;28;20038;-66
2022/01/26 05:16:30;;;;;;;82.88;25.83;;;;;;;;;;4985387;28;20531;-66
2022/01/26 05:18:57;;;;;;;81.00;26.38;;;;;;;;;;4986864;28;20119;-66
2022/01/26 05:21:24;;;;;;;80.00;25.63;;;;;;;;;;4978506;28;20039;-66
2022/01/26 05:23:50;;;;;;;81.28;26.20;;;;;;;;;;4979872;28;20050;-66
2022/01/26 05:26:16;;;;;;;75.25;23.65;;;;;;;;;;4993493;28;20084;-66
2022/01/26 05:28:42;;;;;;;80.95;24.50;;;;;;;;;;4989144;28;20038;-66
2022/01/26 05:31:08;;;;;;;76.18;24.50;;;;;;;;;;4985836;28;20101;-66
2022/01/26 05:33:34;;;;;;;76.93;24.92;;;;;;;;;;4979487;28;20065;-66
2022/01/26 05:36:00;;;;;;;75.40;23.80;;;;;;;;;;4989017;28;20046;-66
2022/01/26 05:38:26;;;;;;;70.85;22.90;;;;;;;;;;4987170;28;20385;-66
2022/01/26 05:40:55;;;;;;;68.38;23.25;;;;;;;;;;4982876;28;20041;-66
2022/01/26 05:43:21;;;;;;;70.78;24.17;;;;;;;;;;4985841;28;20070;-66
2022/01/26 05:45:50;;;;;;;78.55;25.38;;;;;;;;;;4990564;28;20034;-66
2022/01/26 05:48:16;;;;;;;70.57;21.77;;;;;;;;;;4977269;28;20046;-66
2022/01/26 05:50:50;;;;;;;76.13;23.83;;;;;;;;;;4975100;28;20035;-66
2022/01/26 05:53:17;;;;;;;78.05;24.23;;;;;;;;;;4990592;28;20042;-66
2022/01/26 05:55:43;;;;;;;73.85;24.00;;;;;;;;;;4987317;28;20043;-66
2022/01/26 05:58:09;;;;;;;75.57;23.33;;;;;;;;;;4983379;28;20527;-66
2022/01/26 06:00:35;;;;;;;72.78;23.65;;;;;;;;;;4990425;28;20045;-66
2022/01/26 06:03:01;;;;;;;73.68;23.63;;;;;;;;;;4989150;28;20042;-66
2022/01/26 06:05:27;;;;;;;76.45;23.50;;;;;;;;;;4991756;28;20042;-66
2022/01/26 06:07:53;;;;;;;70.93;20.95;;;;;;;;;;4981902;28;20046;-66
2022/01/26 06:10:19;;;;;;;74.97;23.77;;;;;;;;;;4990060;28;20042;-66
2022/01/26 06:12:45;;;;;;;77.85;22.92;;;;;;;;;;4989283;28;20044;-65
2022/01/26 06:15:11;;;;;;;72.15;23.40;;;;;;;;;;4991546;28;20079;-65
2022/01/26 06:17:37;;;;;;;66.95;22.98;;;;;;;;;;4984431;28;20046;-66
2022/01/26 06:20:03;;;;;;;72.20;24.55;;;;;;;;;;4988922;28;20117;-66
2022/01/26 06:22:29;;;;;;;72.70;22.95;;;;;;;;;;4988306;28;20038;-66
2022/01/26 06:24:57;;;;;;;69.18;22.35;;;;;;;;;;4975557;28;20042;-66
2022/01/26 06:27:23;;;;;;;71.10;20.83;;;;;;;;;;4983899;28;20557;-66
2022/01/26 06:29:49;;;;;;;68.03;21.98;;;;;;;;;;4986475;28;20042;-66
2022/01/26 06:32:17;;;;;;;67.03;21.85;;;;;;;;;;4989709;28;20070;-66
2022/01/26 06:34:43;;;;;;;66.47;21.95;;;;;;;;;;4987520;28;20042;-66
2022/01/26 06:37:09;;;;;;;66.15;20.85;;;;;;;;;;5002966;28;20426;-66
2022/01/26 06:39:35;;;;;;;65.97;21.50;;;;;;;;;;4984501;28;20046;-66
2022/01/26 06:42:03;;;;;;;63.53;20.75;;;;;;;;;;4982788;28;20118;-66
2022/01/26 06:44:36;;;;;;;70.15;21.75;;;;;;;;;;4982161;28;20121;-66
2022/01/26 06:49:28;;;;;;;61.83;20.02;;;;;;;;;;4987374;28;20045;-66
2022/01/26 06:51:55;;;;;;;57.40;19.75;;;;;;;;;;4981137;28;20117;-66
2022/01/26 06:54:21;;;;;;;63.40;21.23;;;;;;;;;;4979651;28;20042;-66
2022/01/26 06:56:47;;;;;;;67.70;20.38;;;;;;;;;;5027570;28;20040;-66
2022/01/26 06:59:13;;;;;;;65.30;21.33;;;;;;;;;;4989743;28;20049;-66
2022/01/26 07:01:40;;;;;;;60.55;19.40;;;;;;;;;;4988812;28;20492;-66
2022/01/26 07:04:06;;;;;;;60.25;19.00;;;;;;;;;;4982360;28;20046;-66
2022/01/26 07:06:32;;;;;;;62.65;20.45;;;;;;;;;;4993546;28;20062;-66
2022/01/26 07:08:58;;;;;;;61.33;20.83;;;;;;;;;;4978642;28;20093;-66
2022/01/26 07:11:24;;;;;;;62.40;19.27;;;;;;;;;;4990189;28;20057;-66
2022/01/26 07:13:52;;;;;;;61.63;20.45;;;;;;;;;;4980751;28;20046;-66
2022/01/26 07:21:49;;;;;;;61.03;19.80;;;;;;;;;;4989197;28;20046;-66
2022/01/26 07:24:15;;;;;;;58.63;18.92;;;;;;;;;;4982580;28;20082;-66
2022/01/26 07:26:42;;;;;;;64.95;19.95;;;;;;;;;;4985326;28;20042;-66
2022/01/26 07:29:12;;;;;;;56.33;19.00;;;;;;;;;;4980814;28;20042;-66
2022/01/26 07:31:42;;;;;;;61.65;18.88;;;;;;;;;;4977618;28;20057;-66
2022/01/26 07:34:10;;;;;;;59.17;20.00;;;;;;;;;;4981188;28;20050;-66
2022/01/26 07:36:35;;;;;;;61.28;19.38;;;;;;;;;;5024846;22;20135;-64
2022/01/26 07:39:07;;;;;;;63.78;20.08;;;;;;;;;;5091820;28;20139;-65
2022/01/26 07:41:33;;;;;;;67.38;20.63;;;;;;;;;;5095003;28;20054;-64
2022/01/26 07:44:00;;;;;;;55.53;18.58;;;;;;;;;;5093335;28;20032;-64
2022/01/26 07:46:27;;;;;;;67.00;20.98;;;;;;;;;;5081834;28;20048;-64
2022/01/26 07:48:53;;;;;;;65.80;21.38;;;;;;;;;;5073820;28;20044;-65
2022/01/26 07:51:19;;;;;;;65.35;23.00;;;;;;;;;;5075168;28;20123;-64
2022/01/26 07:53:45;;;;;;;64.43;21.80;;;;;;;;;;5074287;28;20116;-64
2022/01/26 07:56:11;;;;;;;68.25;22.20;;;;;;;;;;5069459;28;20597;-64
2022/01/26 07:58:37;;;;;;;63.88;22.58;;;;;;;;;;5066686;28;20405;-65
2022/01/26 08:01:03;;;;;;;70.72;22.63;;;;;;;;;;5072374;28;20040;-65
2022/01/26 08:03:33;;;;;;;69.20;24.15;;;;;;;;;;5079495;28;20041;-64
2022/01/26 08:06:00;;;;;;;70.35;24.58;;;;;;;;;;5075545;28;20063;-64
2022/01/26 08:08:27;;;;;;;78.88;25.38;;;;;;;;;;5074491;28;20040;-65
2022/01/26 08:10:53;;;;;;;81.03;26.08;;;;;;;;;;5074616;28;20068;-65
2022/01/26 08:13:19;;;;;;;73.07;25.50;;;;;;;;;;5079396;28;20036;-65
2022/01/26 08:15:45;;;;;;;85.35;28.25;;;;;;;;;;5064179;28;20089;-65
2022/01/26 08:18:11;;;;;;;83.30;28.27;;;;;;;;;;5068332;28;20036;-65
2022/01/26 08:20:37;;;;;;;86.00;30.45;;;;;;;;;;5072748;28;20064;-65
2022/01/26 08:23:03;;;;;;;87.95;29.13;;;;;;;;;;5064181;28;20029;-65
2022/01/26 08:25:29;;;;;;;88.32;29.00;;;;;;;;;;5069481;28;20040;-64
2022/01/26 08:28:02;;;;;;;89.25;31.55;;;;;;;;;;5074699;28;20111;-64
2022/01/26 08:30:30;;;;;;;90.15;30.40;;;;;;;;;;5073711;28;20054;-64
2022/01/26 08:32:56;;;;;;;91.50;31.27;;;;;;;;;;5073981;28;20046;-64
2022/01/26 08:35:22;;;;;;;102.78;33.33;;;;;;;;;;5073770;28;20040;-65
2022/01/26 08:37:48;;;;;;;99.72;32.58;;;;;;;;;;5057232;28;20044;-64
2022/01/26 08:40:14;;;;;;;98.45;33.53;;;;;;;;;;5073518;28;20040;-65
2022/01/26 08:42:42;;;;;;;88.22;31.55;;;;;;;;;;5070970;28;20089;-64
2022/01/26 08:45:08;;;;;;;103.47;34.55;;;;;;;;;;5073941;28;20048;-64
2022/01/26 08:47:34;;;;;;;98.68;34.05;;;;;;;;;;5072845;28;20036;-64
2022/01/26 08:50:00;;;;;;;101.65;35.28;;;;;;;;;;5073171;28;20032;-65
2022/01/26 08:52:26;;;;;;;102.32;36.55;;;;;;;;;;5073917;28;20047;-66
2022/01/26 08:54:52;;;;;;;101.20;34.42;;;;;;;;;;5072028;28;20044;-66
2022/01/26 08:57:18;;;;;;;106.50;37.70;;;;;;;;;;5071959;28;20032;-66
2022/01/26 08:59:44;;;;;;;111.38;37.30;;;;;;;;;;5068743;28;20394;-66
2022/01/26 09:02:10;;;;;;;109.07;40.08;;;;;;;;;;5067797;28;20033;-65
2022/01/26 09:04:36;;;;;;;105.20;36.80;;;;;;;;;;5071573;28;20033;-66
2022/01/26 09:07:03;;;;;;;109.53;37.40;;;;;;;;;;5067797;28;20047;-66
2022/01/26 09:09:32;;;;;;;112.70;39.55;;;;;;;;;;5070626;28;20602;-66
2022/01/26 09:11:59;;;;;;;118.85;43.50;;;;;;;;;;5064813;28;20044;-66
2022/01/26 09:14:28;;;;;;;114.55;38.85;;;;;;;;;;5069088;28;20494;-65
2022/01/26 09:16:54;;;;;;;115.65;40.30;;;;;;;;;;5075541;28;20091;-65
2022/01/26 09:19:29;;;;;;;118.22;41.45;;;;;;;;;;5067847;28;20033;-66
2022/01/26 09:22:16;;;;;;;117.75;40.50;;;;;;;;;;5069602;28;20090;-66
2022/01/26 09:24:43;;;;;;;116.07;41.78;;;;;;;;;;5070764;28;20533;-66
2022/01/26 09:27:12;;;;;;;112.82;40.55;;;;;;;;;;5064261;28;20510;-65
2022/01/26 09:29:38;;;;;;;112.63;41.45;;;;;;;;;;5072835;28;20457;-66
2022/01/26 09:32:05;;;;;;;115.32;43.10;;;;;;;;;;5071787;28;20040;-66
2022/01/26 09:34:35;;;;;;;126.32;45.65;;;;;;;;;;5062251;28;20498;-66
2022/01/26 09:37:01;;;;;;;128.60;44.50;;;;;;;;;;5063447;28;20047;-66
2022/01/26 09:39:27;;;;;;;120.95;44.15;;;;;;;;;;5070592;28;20043;-66
2022/01/26 09:41:53;;;;;;;117.00;42.80;;;;;;;;;;5072591;28;20039;-66
2022/01/26 09:44:21;;;;;;;129.75;45.72;;;;;;;;;;5067956;28;20064;-67
2022/01/26 09:46:47;;;;;;;127.53;45.42;;;;;;;;;;5075458;28;20069;-66
2022/01/26 09:49:16;;;;;;;123.22;42.10;;;;;;;;;;5063237;28;20048;-68
2022/01/26 09:51:43;;;;;;;126.03;43.30;;;;;;;;;;5068001;28;20129;-67
2022/01/26 09:54:14;;;;;;;126.30;44.92;;;;;;;;;;5070723;28;20045;-67
2022/01/26 09:56:40;;;;;;;121.05;46.30;;;;;;;;;;5070218;28;20100;-66
2022/01/26 09:59:06;;;;;;;128.23;44.78;;;;;;;;;;5072901;28;20037;-66
2022/01/26 10:01:40;;;;;;;127.15;46.38;;;;;;;;;;5070352;28;20025;-66
2022/01/26 10:04:05;;;;;;;128.77;45.83;;;;;;;;;;5072231;28;20454;-67
2022/01/26 10:06:32;;;;;;;129.02;45.90;;;;;;;;;;5071775;28;20090;-66
2022/01/26 10:09:15;;;;;;;123.60;44.80;;;;;;;;;;5071465;28;20070;-67
2022/01/26 10:17:35;;;;;;;130.63;44.90;;;;;;;;;;5071731;28;20060;-66
2022/01/26 10:20:03;;;;;;;127.03;45.58;;;;;;;;;;5070822;28;20121;-66
2022/01/26 10:22:33;;;;;;;133.63;46.13;;;;;;;;;;5071543;28;20041;-66
2022/01/26 10:25:10;;;;;;;134.43;47.13;;;;;;;;;;5070851;28;20044;-67
2022/01/26 10:27:54;;;;;;;132.63;47.10;;;;;;;;;;5060148;28;20120;-66
2022/01/26 10:30:20;;;;;;;132.40;45.90;;;;;;;;;;5054449;28;21560;-66
2022/01/26 10:32:47;;;;;;;130.18;44.75;;;;;;;;;;5071086;28;20036;-66
2022/01/26 10:35:14;;;;;;;128.25;44.85;;;;;;;;;;5069800;28;20286;-67
2022/01/26 10:37:48;;;;;;;125.30;46.72;;;;;;;;;;5070575;28;20044;-67
2022/01/26 10:40:18;;;;;;;126.57;44.13;;;;;;;;;;5071829;28;20119;-67
2022/01/26 10:42:55;;;;;;;117.93;41.78;;;;;;;;;;5071179;28;20033;-67
2022/01/26 10:45:33;;;;;;;124.03;44.30;;;;;;;;;;5070813;28;20033;-67
2022/01/26 10:48:15;;;;;;;121.82;41.20;;;;;;;;;;5071056;28;20037;-66
2022/01/26 10:53:15;;;;;;;119.78;42.97;;;;;;;;;;5056437;28;20037;-65
2022/01/26 10:55:41;;;;;;;112.03;42.63;;;;;;;;;;5064257;28;20121;-66
2022/01/26 10:58:08;;;;;;;121.80;44.25;;;;;;;;;;5068521;28;20190;-66
2022/01/26 11:00:36;;;;;;;121.28;43.10;;;;;;;;;;5071033;28;20037;-66
2022/01/26 11:03:02;;;;;;;122.82;46.30;;;;;;;;;;5070332;28;20036;-66
2022/01/26 11:05:28;;;;;;;127.60;46.58;;;;;;;;;;5059983;28;20041;-66
2022/01/26 11:07:55;;;;;;;121.10;42.53;;;;;;;;;;5067574;28;20052;-66
2022/01/26 11:10:24;;;;;;;120.30;43.45;;;;;;;;;;5055429;28;20029;-65
2022/01/26 11:12:50;;;;;;;114.70;42.22;;;;;;;;;;5060065;28;20045;-66
2022/01/26 11:15:16;;;;;;;118.15;42.53;;;;;;;;;;5066672;28;21473;-67
2022/01/26 11:17:46;;;;;;;115.40;41.85;;;;;;;;;;5068825;28;20036;-66
2022/01/26 11:20:14;;;;;;;120.70;42.50;;;;;;;;;;5062095;28;20067;-67
2022/01/26 11:23:00;;;;;;;112.65;40.65;;;;;;;;;;5071184;28;20383;-66
2022/01/26 11:25:30;;;;;;;120.13;42.97;;;;;;;;;;5066432;28;20453;-66
2022/01/26 11:27:57;;;;;;;115.73;40.40;;;;;;;;;;5064892;28;20029;-66
2022/01/26 11:30:28;;;;;;;110.28;39.38;;;;;;;;;;5070429;28;20033;-66
2022/01/26 11:32:58;;;;;;;110.63;39.58;;;;;;;;;;5070091;28;20110;-66
2022/01/26 11:35:27;;;;;;;99.93;35.42;;;;;;;;;;5070888;28;20032;-66
2022/01/26 11:46:35;;;;;;;104.55;37.20;;;;;;;;;;5051245;28;20072;-66
2022/01/26 11:49:10;;;;;;;111.20;38.92;;;;;;;;;;5061152;28;20047;-66
2022/01/26 11:51:40;;;;;;;103.30;37.17;;;;;;;;;;5063483;28;20047;-66
2022/01/26 11:54:14;;;;;;;94.45;36.45;;;;;;;;;;5059504;28;20131;-66
2022/01/26 11:56:40;;;;;;;95.93;35.40;;;;;;;;;;5059009;28;20067;-66
2022/01/26 11:59:20;;;;;;;102.75;36.97;;;;;;;;;;5069277;28;20033;-67
2022/01/26 12:01:54;;;;;;;97.80;33.70;;;;;;;;;;5058012;28;20036;-66
2022/01/26 12:04:20;;;;;;;99.68;34.33;;;;;;;;;;5069732;28;20099;-67
2022/01/26 12:06:56;;;;;;;94.20;33.72;;;;;;;;;;5068574;28;20076;-67
2022/01/26 12:09:23;;;;;;;98.50;33.65;;;;;;;;;;5052793;28;20454;-66
2022/01/26 12:11:54;;;;;;;91.63;34.03;;;;;;;;;;5065069;28;20040;-66
2022/01/26 12:14:21;;;;;;;94.43;32.20;;;;;;;;;;5068044;28;20037;-66
2022/01/26 12:16:50;;;;;;;95.50;33.03;;;;;;;;;;5065501;28;20043;-67
2022/01/26 12:33:39;;;;;;;82.00;31.05;;;;;;;;;;5074630;28;20052;-66
2022/01/26 12:36:16;;;;;;;89.72;31.30;;;;;;;;;;5074568;28;20421;-66
2022/01/26 12:38:49;;;;;;;88.43;32.33;;;;;;;;;;5061652;28;20045;-66
2022/01/26 12:43:49;;;;;;;84.15;30.73;;;;;;;;;;5073903;28;20132;-66
2022/01/26 12:46:19;;;;;;;82.38;29.55;;;;;;;;;;5076706;28;20485;-66
2022/01/26 12:48:56;;;;;;;92.20;32.20;;;;;;;;;;5072758;28;20036;-66
2022/01/26 12:51:22;;;;;;;92.22;31.77;;;;;;;;;;5073521;28;20101;-66
2022/01/26 12:53:56;;;;;;;80.80;29.67;;;;;;;;;;5071065;28;20036;-66
2022/01/26 12:56:24;;;;;;;80.40;28.60;;;;;;;;;;5071846;28;20066;-67
2022/01/26 12:58:58;;;;;;;83.32;29.38;;;;;;;;;;5061124;28;20119;-66
2022/01/26 13:01:24;;;;;;;78.78;30.48;;;;;;;;;;5073103;28;20494;-67
2022/01/26 13:03:55;;;;;;;81.35;30.15;;;;;;;;;;5071013;28;20029;-66
2022/01/26 13:06:22;;;;;;;;;;;;;;;;;;5074730;28;20483;-66
2022/01/26 13:08:49;;;;;;;78.88;30.17;;;;;;;;;;5069131;28;20015;-66
2022/01/26 13:11:32;;;;;;;76.53;28.92;;;;;;;;;;5074887;28;20037;-66
2022/01/26 13:14:29;;;;;;;83.90;29.67;;;;;;;;;;5060350;28;20039;-66
2022/01/26 13:16:57;;;;;;;86.35;30.40;;;;;;;;;;5068996;28;20048;-66
2022/01/26 13:33:14;;;;;;;89.20;31.77;;;;;;;;;;5071591;28;20041;-66
2022/01/26 13:38:22;;;;;;;89.50;30.77;;;;;;;;;;5113520;22;20054;-66
2022/01/26 13:41:09;;;;;;;83.07;30.15;;;;;;;;;;5112850;28;20032;-66
2022/01/26 13:51:17;;;;;;;85.72;30.92;;;;;;;;;;5104369;28;20040;-66
2022/01/26 13:56:18;;;;;;;78.53;30.08;;;;;;;;;;5105710;28;20039;-65
2022/01/26 13:58:58;;;;;;;83.57;30.85;;;;;;;;;;5104126;28;20115;-66
2022/01/26 14:01:24;;;;;;;84.32;29.30;;;;;;;;;;5100459;28;20577;-66
2022/01/26 14:03:55;;;;;;;86.45;30.98;;;;;;;;;;5107841;28;20118;-66
2022/01/26 14:06:21;;;;;;;91.82;31.75;;;;;;;;;;5101209;28;20032;-66
2022/01/26 14:08:47;;;;;;;87.50;31.05;;;;;;;;;;5105938;28;20055;-66
2022/01/26 14:11:13;;;;;;;81.13;30.00;;;;;;;;;;5106588;28;20058;-66
2022/01/26 14:13:39;;;;;;;82.18;29.95;;;;;;;;;;5102209;28;20119;-66
2022/01/26 14:16:08;;;;;;;86.82;31.15;;;;;;;;;;5099362;27;20492;-66
2022/01/26 14:21:40;;;;;;;83.57;31.90;;;;;;;;;;5094451;28;20081;-67
2022/01/26 14:26:44;;;;;;;79.65;30.40;;;;;;;;;;5105585;28;20043;-66
2022/01/26 14:29:25;;;;;;;81.75;31.13;;;;;;;;;;5111276;28;20043;-66
2022/01/26 14:32:13;;;;;;;78.93;31.35;;;;;;;;;;5109973;28;20044;-66
2022/01/26 14:51:13;;;;;;;72.85;28.85;;;;;;;;;;5109113;28;20584;-65
2022/01/26 15:10:18;;;;;;;77.80;29.02;;;;;;;;;;5100237;28;20423;-66
2022/01/26 15:32:00;;;;;;;72.03;26.27;;;;;;;;;;5112298;28;20417;-68
2022/01/26 15:34:56;;;;;;;76.60;27.33;;;;;;;;;;5104490;28;20052;-65
2022/01/26 15:50:22;;;;;;;91.78;41.13;;;;;;;;;;5123956;28;20077;-65
2022/01/26 15:58:21;;;;;;;75.82;31.25;;;;;;;;;;5102596;28;20108;-65
2022/01/26 16:06:39;;;;;;;78.63;30.08;;;;;;;;;;5104390;27;20052;-65
2022/01/26 16:18:19;;;;;;;73.53;28.38;;;;;;;;;;5097242;28;20109;-65
2022/01/26 17:34:33;;;;;;;65.97;26.95;;;;;;;;;;5101548;28;20035;-64
2022/01/26 17:48:06;;;;;;;75.47;27.83;;;;;;;;;;5098647;28;20062;-65
2022/01/26 18:04:10;;;;;;;76.10;31.40;;;;;;;;;;5101254;28;20042;-65
2022/01/26 18:26:05;;;;;;;72.10;29.75;;;;;;;;;;5097146;28;20073;-65
2022/01/26 18:40:03;;;;;;;74.45;30.08;;;;;;;;;;5096184;28;20129;-65
2022/01/26 18:50:31;;;;;;;65.38;27.60;;;;;;;;;;5092278;28;20554;-65
2022/01/26 18:52:57;;;;;;;64.95;27.70;;;;;;;;;;5101253;28;20043;-65
2022/01/26 18:55:23;;;;;;;63.38;25.55;;;;;;;;;;5096694;28;20416;-65
2022/01/26 18:57:49;;;;;;;66.63;25.25;;;;;;;;;;5097627;28;20119;-65
2022/01/26 19:00:15;;;;;;;66.43;27.60;;;;;;;;;;5101451;28;20104;-65
2022/01/26 19:02:41;;;;;;;71.85;27.55;;;;;;;;;;5101646;28;20044;-65
2022/01/26 19:05:08;;;;;;;65.40;27.17;;;;;;;;;;5100880;28;20080;-65
2022/01/26 19:07:34;;;;;;;69.85;28.77;;;;;;;;;;5096103;28;20039;-65
2022/01/26 19:10:00;;;;;;;71.78;29.77;;;;;;;;;;5099693;28;20069;-65
2022/01/26 19:12:30;;;;;;;64.65;28.50;;;;;;;;;;5100166;28;20550;-66
2022/01/26 19:15:01;;;;;;;75.53;28.20;;;;;;;;;;5102955;28;20062;-66
2022/01/26 19:17:33;;;;;;;72.25;29.33;;;;;;;;;;5096698;28;20040;-66
2022/01/26 19:20:18;;;;;;;72.28;29.35;;;;;;;;;;5101681;28;20118;-65
2022/01/26 19:22:57;;;;;;;68.20;29.85;;;;;;;;;;5109731;28;20047;-65
2022/01/26 19:28:02;;;;;;;74.88;29.10;;;;;;;;;;5098707;28;20068;-66
2022/01/26 19:33:23;;;;;;;73.05;32.08;;;;;;;;;;5102482;28;20043;-65
2022/01/26 19:51:44;;;;;;;72.18;31.65;;;;;;;;;;5065821;28;20044;-66
2022/01/26 19:54:10;;;;;;;71.38;34.08;;;;;;;;;;5065624;28;20047;-66
2022/01/26 19:56:36;;;;;;;65.93;30.05;;;;;;;;;;5068779;28;20040;-65
2022/01/26 19:59:03;;;;;;;74.20;33.88;;;;;;;;;;5068269;28;20025;-65
2022/01/26 20:01:29;;;;;;;65.28;28.80;;;;;;;;;;5068757;28;20090;-65
2022/01/26 20:03:55;;;;;;;74.88;33.53;;;;;;;;;;5070391;28;20044;-65
2022/01/26 20:06:21;;;;;;;70.43;31.27;;;;;;;;;;5067228;28;20040;-66
2022/01/26 20:08:58;;;;;;;68.40;27.95;;;;;;;;;;5069103;28;20040;-66
2022/01/26 20:11:37;;;;;;;65.45;27.92;;;;;;;;;;5067050;28;20041;-66
2022/01/26 20:14:04;;;;;;;66.85;28.92;;;;;;;;;;5065862;28;20045;-65
2022/01/26 20:16:31;;;;;;;68.63;28.15;;;;;;;;;;5065407;28;20486;-66
2022/01/26 20:18:57;;;;;;;61.75;25.88;;;;;;;;;;5067468;28;20045;-66
2022/01/26 20:21:23;;;;;;;69.75;27.85;;;;;;;;;;5067768;28;20056;-66
2022/01/26 20:23:50;;;;;;;64.05;29.35;;;;;;;;;;5067924;28;20043;-66
2022/01/26 20:26:16;;;;;;;68.85;28.77;;;;;;;;;;5068192;28;20036;-67
2022/01/26 20:28:44;;;;;;;62.88;26.58;;;;;;;;;;5067520;28;20527;-66
2022/01/26 20:31:19;;;;;;;65.28;29.38;;;;;;;;;;5062121;28;20056;-66
2022/01/26 20:33:46;;;;;;;71.93;29.02;;;;;;;;;;5065802;28;20041;-66
2022/01/26 20:36:12;;;;;;;62.58;27.70;;;;;;;;;;5061565;28;20045;-66
2022/01/26 20:38:39;;;;;;;66.50;29.95;;;;;;;;;;5066104;28;20143;-66
2022/01/26 20:41:05;;;;;;;63.28;28.42;;;;;;;;;;5064501;28;20037;-66
2022/01/26 20:43:31;;;;;;;60.80;27.75;;;;;;;;;;5067283;28;20059;-66
2022/01/26 20:45:57;;;;;;;70.35;30.60;;;;;;;;;;5069502;28;20056;-66
2022/01/26 20:48:24;;;;;;;78.60;37.20;;;;;;;;;;5066210;28;20036;-66
2022/01/26 20:50:49;;;;;;;69.88;30.27;;;;;;;;;;5066959;28;20040;-65